Decoded Metar for KPIB (PINE BELT RGNL in MS, USA) (IATA:PIB) | Meteo·Mobile Aviation Weather
aviador You're here:

KPIB Decoded Metar

PINE BELT RGNL in MS, USA
Report Time2018-12-16 19:56:00
UTC Time2018-12-16 20:10:09
Flight Rules mvfr MVFR
Wind320° at 05 kt
W.Decomp.*RWY 36: 3.9 kt HW 3.1 kt LCW
W.Rank320° ranks 18
Current wind is below 320° avg. (6.0)
Visibility9999 m
Phenomena:N/A
Clouds:Broken 018 Hf
Expected CloudBase > 1,600 ft AGL from Temp-Dew spread
Ceiling1,800 ft
Temp12°C (ISA -2)
Dew Point08°C (77% RH)
AAT9.8°C
QNH1025 hPa
Density Alt-246 ft
Elevation299 ft
Report Wrong Elevation
Raw Report
KPIB 161956Z AUTO 32005KT 10SM BKN018 12/08 A3027 RMK AO2 SLP251
T01220083=

Extra information for KPIB:More info

Metar Taf Metar & Taf Last 4 Metars F.Rules Stats Wind Profile Meteogram Temp Stats Airport Information Weather charts Add Link Nearby VenuesMetar ALERT Operation Metar Decoded Social comments

AIRNAV info for KPIB